< Typhoon 196529 1965 Season Typhoon 196531 >
Typhoon 196530 (DELLA)
General InformationTrack Information on Google Maps || Disaster Info.ResourceGoogle EarthGE AnimationAtom FeedGeoJSON
Detalied Best Track (Time Zone = UTC)
Year Month Day Hour Lat. Long. Pressure (hPa) Wind (kt) Class Image Chart
1965 10 10 00 8.0 168.0 1000 0 2 -- Chart
1965 10 10 06 7.5 167.8 1005 0 2 -- Chart
1965 10 10 12 7.2 167.5 1008 0 2 -- Chart
1965 10 10 18 7.5 167.0 1004 0 2 -- Chart
1965 10 11 00 8.8 166.7 1004 0 2 -- Chart
1965 10 11 06 10.2 166.5 1004 0 2 -- Chart
1965 10 11 12 11.6 166.3 1004 0 2 -- Chart
1965 10 11 18 11.9 164.7 1002 0 2 -- Chart
1965 10 12 00 12.2 163.3 1000 0 2 -- Chart
1965 10 12 06 12.9 162.8 1000 0 2 -- Chart
1965 10 12 12 14.0 163.4 1000 0 2 -- Chart
1965 10 12 18 15.0 163.3 1000 0 2 -- Chart
1965 10 13 00 16.3 163.2 1000 0 2 -- Chart
1965 10 13 06 16.8 162.6 1000 0 2 -- Chart
1965 10 13 12 17.5 161.9 1000 0 2 -- Chart
1965 10 13 18 17.8 161.1 998 0 2 -- Chart
1965 10 14 00 18.3 160.8 996 0 9 -- Chart
1965 10 14 06 18.8 160.8 994 0 9 -- Chart
1965 10 14 12 19.4 159.8 990 0 9 -- Chart
1965 10 14 18 19.8 158.8 986 0 9 -- Chart
1965 10 15 00 20.1 157.7 982 0 9 -- Chart
1965 10 15 06 20.8 156.8 980 0 9 -- Chart
1965 10 15 12 21.6 155.5 980 0 9 -- Chart
1965 10 15 18 22.4 154.1 978 0 9 -- Chart
1965 10 16 00 23.0 152.8 978 0 9 -- Chart
1965 10 16 06 23.5 151.5 975 0 9 -- Chart
1965 10 16 12 23.7 150.5 975 0 9 -- Chart
1965 10 16 18 23.8 149.4 975 0 9 -- Chart
1965 10 17 00 23.8 148.3 975 0 9 -- Chart
1965 10 17 06 24.2 147.5 975 0 9 -- Chart
1965 10 17 12 24.8 146.9 975 0 9 -- Chart
1965 10 17 18 25.5 146.7 975 0 9 -- Chart
1965 10 18 00 26.2 146.5 975 0 9 -- Chart
1965 10 18 06 27.2 146.5 975 0 9 -- Chart
1965 10 18 12 28.3 146.5 975 0 9 -- Chart
1965 10 18 18 29.7 146.8 975 0 9 -- Chart
1965 10 19 00 31.7 147.2 980 0 9 -- Chart
1965 10 19 06 33.8 147.8 980 0 9 -- Chart
1965 10 19 12 36.3 148.6 980 0 9 -- Chart
1965 10 19 18 39.2 150.1 985 0 9 -- Chart
1965 10 20 00 42.0 152.0 988 0 9 -- Chart
1965 10 20 06 44.0 156.0 994 0 6 -- Chart
1965 10 20 12 45.0 160.0 996 0 6 -- Chart
1965 10 20 18 46.0 164.0 994 0 6 -- Chart
1965 10 21 00 47.5 169.0 990 0 6 -- Chart
1965 10 21 06 49.0 175.0 988 0 6 -- Chart
1965 10 21 12 49.0 180.0 988 0 6 -- Chart
1965 10 21 18 48.5 185.0 988 0 6 -- Chart
Japan Meteorological Agency Best Track Data | Correction Date : 1991-07-17
< Typhoon 196529 1965 Season Typhoon 196531 >

Help